地図

経路データ

SID SEASON NUMBER BASIN SUBBASIN NAME ISO_TIME NATURE LAT LON WMO_WIND WMO_PRES WMO_AGENCY TRACK_TYPE DIST2LAND LANDFALL IFLAG USA_AGENCY USA_ATCF_ID USA_LAT USA_LON USA_RECORD USA_STATUS USA_WIND USA_PRES USA_SSHS USA_R34_NE USA_R34_SE USA_R34_SW USA_R34_NW USA_R50_NE USA_R50_SE USA_R50_SW USA_R50_NW USA_R64_NE USA_R64_SE USA_R64_SW USA_R64_NW USA_POCI USA_ROCI USA_RMW USA_EYE TOKYO_LAT TOKYO_LON TOKYO_GRADE TOKYO_WIND TOKYO_PRES TOKYO_R50_DIR TOKYO_R50_LONG TOKYO_R50_SHORT TOKYO_R30_DIR TOKYO_R30_LONG TOKYO_R30_SHORT TOKYO_LAND CMA_LAT CMA_LON CMA_CAT CMA_WIND CMA_PRES HKO_LAT HKO_LON HKO_CAT HKO_WIND HKO_PRES NEWDELHI_LAT NEWDELHI_LON NEWDELHI_GRADE NEWDELHI_WIND NEWDELHI_PRES NEWDELHI_CI NEWDELHI_DP NEWDELHI_POCI REUNION_LAT REUNION_LON REUNION_TYPE REUNION_WIND REUNION_PRES REUNION_TNUM REUNION_CI REUNION_RMW REUNION_R34_NE REUNION_R34_SE REUNION_R34_SW REUNION_R34_NW REUNION_R50_NE REUNION_R50_SE REUNION_R50_SW REUNION_R50_NW REUNION_R64_NE REUNION_R64_SE REUNION_R64_SW REUNION_R64_NW BOM_LAT BOM_LON BOM_TYPE BOM_WIND BOM_PRES BOM_TNUM BOM_CI BOM_RMW BOM_R34_NE BOM_R34_SE BOM_R34_SW BOM_R34_NW BOM_R50_NE BOM_R50_SE BOM_R50_SW BOM_R50_NW BOM_R64_NE BOM_R64_SE BOM_R64_SW BOM_R64_NW BOM_ROCI BOM_POCI BOM_EYE BOM_POS_METHOD BOM_PRES_METHOD NADI_LAT NADI_LON NADI_CAT NADI_WIND NADI_PRES WELLINGTON_LAT WELLINGTON_LON WELLINGTON_WIND WELLINGTON_PRES DS824_LAT DS824_LON DS824_STAGE DS824_WIND DS824_PRES TD9636_LAT TD9636_LON TD9636_STAGE TD9636_WIND TD9636_PRES TD9635_LAT TD9635_LON TD9635_WIND TD9635_PRES TD9635_ROCI NEUMANN_LAT NEUMANN_LON NEUMANN_CLASS NEUMANN_WIND NEUMANN_PRES MLC_LAT MLC_LON MLC_CLASS MLC_WIND MLC_PRES USA_GUST BOM_GUST BOM_GUST_PER REUNION_GUST REUNION_GUST_PER USA_SEAHGT USA_SEARAD_NE USA_SEARAD_SE USA_SEARAD_SW USA_SEARAD_NW STORM_SPEED STORM_DIR
1982274N25295 1982 85 NA NA ERNESTO 1982-09-30 12:00:00 TS 24.8000 -65.4000 30 1006 hurdat_atl main 715 715 O_____________ hurdat_atl AL081982 24.8000 -65.4000 TD 30 1006 -1 15 289
1982274N25295 1982 85 NA NA ERNESTO 1982-09-30 15:00:00 TS 25.0412 -66.1743 main 712 711 P_____________ AL081982 25.0412 -66.1743 TD 30 1005 -1 14 292
1982274N25295 1982 85 NA NA ERNESTO 1982-09-30 18:00:00 TS 25.3000 -66.8000 30 1005 hurdat_atl main 716 712 O_____________ hurdat_atl AL081982 25.3000 -66.8000 TD 30 1005 -1 11 301
1982274N25295 1982 85 NA NA ERNESTO 1982-09-30 21:00:00 TS 25.5920 -67.1754 main 729 729 P_____________ AL081982 25.5920 -67.1754 TD 30 1005 -1 8 318
1982274N25295 1982 85 NA NA ERNESTO 1982-10-01 00:00:00 TS 25.9000 -67.4000 30 1005 hurdat_atl main 752 752 O_____________ hurdat_atl AL081982 25.9000 -67.4000 TD 30 1005 -1 7 324
1982274N25295 1982 85 NA NA ERNESTO 1982-10-01 03:00:00 TS 26.1850 -67.6524 main 774 774 P_____________ AL081982 26.1850 -67.6524 TD 32 1004 -1 7 329
1982274N25295 1982 85 NA NA ERNESTO 1982-10-01 06:00:00 TS 26.5000 -67.8000 35 1004 hurdat_atl main 793 793 O_____________ hurdat_atl AL081982 26.5000 -67.8000 TS 35 1004 0 7 348
1982274N25295 1982 85 NA NA ERNESTO 1982-10-01 09:00:00 TS 26.8998 -67.8250 main 826 826 P_____________ AL081982 26.8998 -67.8250 TS 37 1003 0 8 6
1982274N25295 1982 85 NA NA ERNESTO 1982-10-01 12:00:00 TS 27.3000 -67.7000 40 1003 hurdat_atl main 867 867 O_____________ hurdat_atl AL081982 27.3000 -67.7000 TS 40 1003 0 8 24
1982274N25295 1982 85 NA NA ERNESTO 1982-10-01 15:00:00 TS 27.6149 -67.4599 main 905 905 P_____________ AL081982 27.6149 -67.4599 TS 45 1001 0 8 42
1982274N25295 1982 85 NA NA ERNESTO 1982-10-01 18:00:00 TS 27.9000 -67.1000 50 1000 hurdat_atl main 956 956 O_____________ hurdat_atl AL081982 27.9000 -67.1000 TS 50 1000 0 9 49
1982274N25295 1982 85 NA NA ERNESTO 1982-10-01 21:00:00 TS 28.1999 -66.6873 main 1007 1007 P_____________ AL081982 28.1999 -66.6873 TS 55 998 0 10 53
1982274N25295 1982 85 NA NA ERNESTO 1982-10-02 00:00:00 TS 28.5000 -66.2000 60 997 hurdat_atl main 1065 1065 O_____________ hurdat_atl AL081982 28.5000 -66.2000 TS 60 997 0 10 55
1982274N25295 1982 85 NA NA ERNESTO 1982-10-02 03:00:00 TS 28.7912 -65.7389 main 1116 1116 P_____________ AL081982 28.7912 -65.7389 TS 57 997 0 11 58
1982274N25295 1982 85 NA NA ERNESTO 1982-10-02 06:00:00 TS 29.1000 -65.1000 55 997 hurdat_atl main 1171 1171 O_____________ hurdat_atl AL081982 29.1000 -65.1000 TS 55 997 0 15 65
1982274N25295 1982 85 NA NA ERNESTO 1982-10-02 09:00:00 TS 29.4424 -64.1547 main 1237 1237 P_____________ AL081982 29.4424 -64.1547 TS 52 997 0 20 69
1982274N25295 1982 85 NA NA ERNESTO 1982-10-02 12:00:00 TS 29.8000 -63.0000 50 998 hurdat_atl main 1300 1300 O_____________ hurdat_atl AL081982 29.8000 -63.0000 TS 50 998 0 22 73
1982274N25295 1982 85 NA NA ERNESTO 1982-10-02 15:00:00 TS 30.0897 -61.7770 main 1362 1362 P_____________ AL081982 30.0897 -61.7770 TS 47 999 0 23 72
1982274N25295 1982 85 NA NA ERNESTO 1982-10-02 18:00:00 TS 30.5000 -60.5000 45 1001 hurdat_atl main 1446 1446 O_____________ hurdat_atl AL081982 30.5000 -60.5000 TS 45 1001 0 24 64
1982274N25295 1982 85 NA NA ERNESTO 1982-10-02 21:00:00 TS 31.1719 -59.2460 main 1470 1426 P_____________ AL081982 31.1719 -59.2460 TS 42 1002 0 26 55
1982274N25295 1982 85 NA NA ERNESTO 1982-10-03 00:00:00 ET 32.0000 -58.0000 40 1003 hurdat_atl main 1430 O_____________ hurdat_atl AL081982 32.0000 -58.0000 EX 40 1003 -4 27 52

IBTrACS Databaseについて

本データベースは、米国NOAAが公開する1842年以降の世界の熱帯低気圧のベストトラックデータアーカイブInternational Best Track Archive for Climate Stewardship (IBTrACS)を、ウェブで閲覧しやすい形式に変換したものです。

最終更新日:2021-10-08